»·PEaware :: RA34691 KSAN-KSFO

RA34691 :: KSAN-KSFO

FLIGHT INFORMATION

Flight Status: Arrived
Operator: Privately registered:
Russian Federation
More flights under this callsign
Pilot: Sergei F. (8485)
Aircraft: TUPOLEV TU-154
(T154)
More flights by this aircraft type
Origin: KSAN San Diego Intl-Lindbergh
United States
Destination: KSFO San Francisco Intl
United States
More flights between these airports :: More routes between these airports
Route: PEBLE6 SXC V27 VTU V25 RZS J501 BSR BSR2
File this flight plan on PilotEdge
Remarks:
Altitude:
(Current/Filed)
38,000ft
Speed:
(Current/Filed)
460kts
Departed: 04-Jan-16 08:08 PM
Arrived: 04-Jan-16 09:34 PM
Distance/Time
Traveled:
388nm/1:26
Distance/Time
To Go:
Arrived

Flight Plot

Page will automatically refresh every two minutes.


Map Options




Map Legend


Flown Route
Filed Route
Departure Airport
Arrival Airport
Navaid (VOR, NDB)
Fix

Horizontal Profiles

Position Reports

Time Latitude Longitude Heading Altitude Ground
Speed
04-Jan-16 19:23 32.732447 -117.201739 100 22ft 0kts
04-Jan-16 19:24 32.732447 -117.201739 100 22ft 0kts
04-Jan-16 19:25 32.732447 -117.201739 100 22ft 0kts
04-Jan-16 19:26 32.732447 -117.201739 100 22ft 0kts
04-Jan-16 19:27 32.732447 -117.201739 100 22ft 0kts
04-Jan-16 19:28 32.732447 -117.201739 100 22ft 0kts
04-Jan-16 19:29 32.732447 -117.201739 100 22ft 0kts
04-Jan-16 19:30 32.732447 -117.201739 100 22ft 0kts
04-Jan-16 19:31 32.732447 -117.201739 100 22ft 0kts
04-Jan-16 19:32 32.732447 -117.201739 100 22ft 0kts
04-Jan-16 19:33 32.732447 -117.201739 100 22ft 0kts
04-Jan-16 19:34 32.732482 -117.201931 112 22ft 1kts
04-Jan-16 19:35 32.732646 -117.202276 99 22ft 2kts
04-Jan-16 19:36 32.732575 -117.202462 11 22ft 1kts
04-Jan-16 19:37 32.733306 -117.202657 343 22ft 0kts
04-Jan-16 19:38 32.733306 -117.202657 343 22ft 0kts
04-Jan-16 19:39 32.733306 -117.202657 343 22ft 0kts
04-Jan-16 19:40 32.733306 -117.202657 343 22ft 0kts
04-Jan-16 19:41 32.733306 -117.202657 343 22ft 0kts
04-Jan-16 19:42 32.733306 -117.202657 343 22ft 0kts
04-Jan-16 19:43 32.733306 -117.202657 343 22ft 0kts
04-Jan-16 19:44 32.733306 -117.202657 343 22ft 0kts
04-Jan-16 19:45 32.733306 -117.202657 343 22ft 0kts
04-Jan-16 19:46 32.733306 -117.202657 343 22ft 0kts
04-Jan-16 19:47 32.733306 -117.202657 343 22ft 0kts
04-Jan-16 19:48 32.733306 -117.202657 343 22ft 0kts
04-Jan-16 19:49 32.733306 -117.202657 343 22ft 0kts
04-Jan-16 19:50 32.733306 -117.202657 343 22ft 0kts
04-Jan-16 19:51 32.733306 -117.202657 343 22ft 0kts
04-Jan-16 19:52 32.733306 -117.202657 343 22ft 0kts
04-Jan-16 19:53 32.733307 -117.202657 343 22ft 0kts
04-Jan-16 19:54 32.734858 -117.202435 19 22ft 8kts
04-Jan-16 19:55 32.735017 -117.200011 105 22ft 18kts
04-Jan-16 19:56 32.733194 -117.192481 105 22ft 26kts
04-Jan-16 19:57 32.731259 -117.184481 105 22ft 23kts
04-Jan-16 19:58 32.729640 -117.177896 108 22ft 15kts
04-Jan-16 19:59 32.729490 -117.176802 72 22ft 0kts
04-Jan-16 20:00 32.729490 -117.176802 72 22ft 0kts
04-Jan-16 20:01 32.729490 -117.176802 72 22ft 0kts
04-Jan-16 20:02 32.730212 -117.175938 305 22ft 7kts
04-Jan-16 20:03 32.730414 -117.176600 285 22ft 0kts
04-Jan-16 20:04 32.738601 -117.206675 294 568ft 171kts
04-Jan-16 20:05 32.767927 -117.259785 303 3681ft 221kts
04-Jan-16 20:06 32.809620 -117.335810 301 4644ft 330kts
04-Jan-16 20:07 32.861176 -117.424135 307 4760ft 293kts
04-Jan-16 20:08 32.907183 -117.493167 307 4759ft 244kts
04-Jan-16 20:09 32.946014 -117.551667 307 5294ft 215kts
04-Jan-16 20:10 32.983220 -117.613113 305 6853ft 241kts
04-Jan-16 20:11 33.023652 -117.679078 305 9243ft 255kts
04-Jan-16 20:12 33.067393 -117.748215 305 11767ft 265kts
04-Jan-16 20:13 33.112571 -117.818688 306 14126ft 268kts
04-Jan-16 20:14 33.151485 -117.882176 302 14924ft 307kts
04-Jan-16 20:15 33.214893 -117.988195 304 16327ft 362kts
04-Jan-16 20:16 33.267365 -118.072215 305 18021ft 391kts
04-Jan-16 20:17 33.351642 -118.158649 331 20591ft 417kts
04-Jan-16 20:18 33.437442 -118.245933 293 23305ft 404kts
04-Jan-16 20:19 33.447579 -118.378486 274 25779ft 400kts
04-Jan-16 20:20 33.472317 -118.505041 304 28136ft 391kts
04-Jan-16 20:21 33.565204 -118.569920 318 30424ft 381kts
04-Jan-16 20:22 33.651152 -118.643400 317 32095ft 375kts
04-Jan-16 20:23 33.734710 -118.717677 316 33310ft 375kts
04-Jan-16 20:24 33.819563 -118.791715 316 34413ft 375kts
04-Jan-16 20:25 33.904912 -118.865897 316 35313ft 378kts
04-Jan-16 20:26 33.990330 -118.940394 315 36164ft 381kts
04-Jan-16 20:27 34.076794 -119.016050 316 36843ft 386kts
04-Jan-16 20:28 34.146521 -119.109208 301 37631ft 373kts
04-Jan-16 20:29 34.207656 -119.211445 300 37826ft 384kts
04-Jan-16 20:30 34.270572 -119.319271 299 37826ft 398kts
04-Jan-16 20:31 34.328890 -119.435088 298 37824ft 410kts
04-Jan-16 20:32 34.392219 -119.552453 298 37816ft 420kts
04-Jan-16 20:33 34.456639 -119.672510 299 37811ft 427kts
04-Jan-16 20:34 34.530213 -119.787276 316 37808ft 445kts
04-Jan-16 20:35 34.621906 -119.886745 315 37808ft 448kts
04-Jan-16 20:36 34.715759 -119.985677 313 37812ft 450kts
04-Jan-16 20:37 34.811974 -120.083696 312 37812ft 449kts
04-Jan-16 20:38 34.907477 -120.182325 311 37808ft 449kts
04-Jan-16 20:39 35.002551 -120.281422 312 37806ft 449kts
04-Jan-16 20:40 35.097504 -120.380918 312 37804ft 449kts
04-Jan-16 20:41 35.191930 -120.480270 311 37799ft 449kts
04-Jan-16 20:42 35.286837 -120.580187 311 37796ft 449kts
04-Jan-16 20:43 35.381914 -120.680915 312 37794ft 450kts
04-Jan-16 20:44 35.476791 -120.781058 312 37790ft 451kts
04-Jan-16 20:45 35.548926 -120.902371 302 37787ft 441kts
04-Jan-16 20:46 35.633791 -121.013910 309 37784ft 449kts
04-Jan-16 20:47 35.724208 -121.118057 309 37779ft 440kts
04-Jan-16 20:48 35.812913 -121.219454 309 37119ft 421kts
04-Jan-16 20:49 35.896982 -121.315405 310 34659ft 402kts
04-Jan-16 20:50 35.977490 -121.407574 310 32253ft 389kts
04-Jan-16 20:51 36.056024 -121.497641 311 29871ft 380kts
04-Jan-16 20:52 36.132531 -121.585937 311 27561ft 370kts
04-Jan-16 20:53 36.210565 -121.666038 320 25415ft 361kts
04-Jan-16 20:54 36.291634 -121.734440 319 23765ft 331kts
04-Jan-16 20:55 36.363208 -121.794579 319 23770ft 294kts
04-Jan-16 20:56 36.430593 -121.850991 319 23775ft 292kts
04-Jan-16 20:57 36.507129 -121.915470 320 21069ft 374kts
04-Jan-16 20:58 36.596629 -121.992358 320 18380ft 390kts
04-Jan-16 20:59 36.684496 -122.067386 321 15798ft 374kts
04-Jan-16 21:00 36.768283 -122.139747 321 13256ft 356kts
04-Jan-16 21:01 36.846797 -122.208186 320 11031ft 327kts
04-Jan-16 21:02 36.915668 -122.268072 320 10767ft 276kts
04-Jan-16 21:03 36.974095 -122.318919 319 10752ft 238kts
04-Jan-16 21:04 37.029221 -122.367335 319 10771ft 269kts
04-Jan-16 21:05 37.098092 -122.427638 330 10761ft 333kts
04-Jan-16 21:06 37.190118 -122.473549 333 10746ft 372kts
04-Jan-16 21:07 37.284698 -122.527237 334 10729ft 355kts
04-Jan-16 21:08 37.371459 -122.569390 333 10722ft 312kts
04-Jan-16 21:09 37.453731 -122.567877 6 10586ft 292kts
04-Jan-16 21:10 37.535228 -122.558071 3 9625ft 296kts
04-Jan-16 21:11 37.617666 -122.548340 2 8684ft 297kts
04-Jan-16 21:12 37.700246 -122.539232 11 7796ft 297kts
04-Jan-16 21:13 37.766040 -122.477293 46 6200ft 305kts
04-Jan-16 21:14 37.830424 -122.405698 46 4585ft 304kts
04-Jan-16 21:15 37.877436 -122.327146 89 3779ft 254kts
04-Jan-16 21:16 37.857063 -122.266765 125 3549ft 216kts
04-Jan-16 21:17 37.807755 -122.237181 212 3236ft 191kts
04-Jan-16 21:18 37.774353 -122.279600 223 3227ft 220kts
04-Jan-16 21:19 37.773214 -122.356449 311 3213ft 252kts
04-Jan-16 21:20 37.835764 -122.361937 27 3203ft 218kts
04-Jan-16 21:21 37.885271 -122.336619 25 2808ft 174kts
04-Jan-16 21:22 37.889181 -122.295442 129 2944ft 158kts
04-Jan-16 21:23 37.863912 -122.260528 177 2784ft 128kts
04-Jan-16 21:24 37.828354 -122.267629 185 2815ft 125kts
04-Jan-16 21:25 37.793568 -122.275709 185 2825ft 130kts
04-Jan-16 21:26 37.755716 -122.284177 185 2831ft 147kts
04-Jan-16 21:27 37.713175 -122.310207 204 1933ft 183kts
04-Jan-16 21:28 37.667514 -122.340583 204 930ft 189kts
04-Jan-16 21:29 37.625136 -122.368697 204 33ft 146kts
04-Jan-16 21:30 37.612855 -122.376595 166 19ft 1kts
04-Jan-16 21:31 37.612713 -122.376465 127 19ft 5kts
04-Jan-16 21:32 37.612927 -122.375064 46 19ft 0kts
04-Jan-16 21:33 37.614520 -122.373856 28 19ft 6kts
04-Jan-16 21:34 37.615253 -122.373364 27 19ft 9kts

Navigation Log

Ident Type
Flight plan parsing failed, navigation log unavailable